Aérodrome :
LOGIN :

S'inscrire | Disclaimer

   EN    FR    IT 

 










Légende :    VFR   VFR Marginal   IFR   IFR Intensif   IFR Très Intensif
Visi : 
Plafond : 
>= 8 km
>= 3000ft
5 à 8 km
1000 à 3000 ft
1500m à 5 km
500 à 1000 ft
800 à 1500m
200 à 500 ft
< 800m
< 200 ft
Symboles :   Orages  Brouillard  Fortes neiges  Fortes précipitations  Vent > 20 kt
SIGMETs :   Divers  Orages  Givrage  Turbulence  Onde Orograph.  Cendres Volcan.






- Altitude de l'aérodrome : 135 ft
- Code IATA : EDI


EGPH - Edinburgh

DERNIER METAR :
  • 290620Z 35005KT 290V020 9999 OVC045 02/M03 Q1047

METARs EXPIRÉS :
  • 290550Z 36005KT 9999 OVC045 03/M03 Q1047
  • 290520Z 02006KT 9999 OVC040 03/M03 Q1047
  • 290450Z 02009KT 9999 OVC048 03/M03 Q1046
  • 290420Z 01007KT 9999 OVC048 03/M03 Q1047
  • 290350Z 02007KT 9999 OVC048 03/M03 Q1047

TAF TAF EGPH
Valide du 29 à 06h jusqu'au 30 à 06h UTC


290457Z 2906/3006 02009KT 9999 SCT045
ATIS : +44 131 339 2823



MET'MAP, la Météo Aéronautique d'un coup d'oeil ! - Copyright ORBIFLY Décembre 2007 - Disclaimer

ORBIFLY MET'MAP TEAM :

Programmation & Développement : Alexandra Zaïnal
Sur une idée originale de : Baudouin d'Aumeries
Assistance à la programmation : Marc-Olivier Méhu
Soutien technique & logistique : Manuel Goepfert

Contact : metmap@orbifly.com




SOURCES & CREDITS :

   NOAA